Saturday, November 18, 2017, 4:36 PM EST
Back to Local

KELM, Elmira County Airport

Location: Horseheads, NY, United States Lat: 42.167
Local Time: 4:36 PM EST (21:36 GMT) Lon: -76.9
Time Zone: US/Eastern Elev: 954 ft

Show me the last for .
Show Decoded

2017-11-18 16:21 METAR KELM 182121Z 19006KT 4SM RA BR OVC014 07/05 A2946 RMK AO2 P0004 T00670050
                 =
2017-11-18 15:53 METAR KELM 182053Z 17004KT 5SM RA OVC016 07/04 A2948 RMK AO2 RAB32 SLP988 P0001
                 60001 T00720044 56027 =
2017-11-18 14:53 METAR KELM 181953Z 16004KT 10SM OVC017 07/04 A2949 RMK AO2 RAE11 SLP994 P0000
                 T00720044 =
2017-11-18 13:53 METAR KELM 181853Z 21007KT 10SM -RA OVC018 07/04 A2954 RMK AO2 RAB18 SLP009
                 P0000 T00670039 =
2017-11-18 12:53 METAR KELM 181753Z 23007KT 10SM OVC022 07/03 A2956 RMK AO2 SLP015 60000
                 T00720033 10072 21006 56036 =
2017-11-18 11:53 METAR KELM 181653Z 23004KT 10SM OVC024 06/02 A2959 RMK AO2 RAB01E26 SLP027 P0000
                 T00610017 =
2017-11-18 11:40 METAR KELM 181640Z 23010KT 10SM BKN024 OVC032 07/01 A2960 RMK AO2 RAB01E26 P0000
                 T00670011 =
2017-11-18 10:53 METAR KELM 181553Z 21009KT 10SM OVC031 07/M01 A2963 RMK AO2 SLP041 T00671006 =
2017-11-18 09:53 METAR KELM 181453Z 21006KT 10SM BKN048 OVC060 05/01 A2967 RMK AO2 RAE08B31E46
                 SLP053 P0000 60000 T00500006 58034 =
2017-11-18 08:53 METAR KELM 181353Z 00000KT 10SM -RA OVC070 04/M01 A2969 RMK AO2 RAB28 SLP060
                 P0000 T00391006 =
2017-11-18 07:53 METAR KELM 181253Z 00000KT 10SM SCT080 OVC095 01/M02 A2975 RMK AO2 SLP083
                 T00061017 =
2017-11-18 06:53 METAR KELM 181153Z 00000KT 10SM BKN100 BKN120 M01/M03 A2977 RMK AO2 SLP090
                 T10061028 11006 21044 56026 =
2017-11-18 05:53 METAR KELM 181053Z AUTO 00000KT 10SM CLR M02/M03 A2978 RMK AO2 SLP096 T10171028
                 =
2017-11-18 04:53 METAR KELM 180953Z AUTO 02004KT 10SM CLR M03/M04 A2981 RMK AO2 SLP105 T10281044
                 =
2017-11-18 03:53 METAR KELM 180853Z AUTO 00000KT 10SM CLR M03/M05 A2985 RMK AO2 SLP117 T10281050
                 58031 =
2017-11-18 02:53 METAR KELM 180753Z AUTO 00000KT 10SM CLR M04/M06 A2989 RMK AO2 SLP129 T10441056
                 =
2017-11-18 01:53 METAR KELM 180653Z AUTO 00000KT 10SM CLR M03/M05 A2990 RMK AO2 SLP136 T10331050
                 =
2017-11-18 00:53 METAR KELM 180553Z AUTO 00000KT 10SM CLR M02/M03 A2994 RMK AO2 SLP147 T10171033
                 10006 21033 58029 =
2017-11-17 23:53 METAR KELM 180453Z AUTO 00000KT 10SM CLR M02/M04 A2998 RMK AO2 SLP161 T10221044
                 400501033 =
2017-11-17 22:53 METAR KELM 180353Z 36003KT 10SM FEW120 M03/M05 A3000 RMK AO2 SLP169 T10281050 =
2017-11-17 21:53 METAR KELM 180253Z 00000KT 10SM SCT110 M01/M04 A3003 RMK AO2 SLP178 T10111039
                 56020 =
2017-11-17 20:53 METAR KELM 180153Z AUTO 00000KT 10SM CLR M01/M03 A3005 RMK AO2 SLP185 T10061033
                 =
2017-11-17 19:53 METAR KELM 180053Z 00000KT 10SM SCT110 01/M04 A3006 RMK AO2 SLP190 T00061039 =
2017-11-17 18:53 METAR KELM 172353Z 09004KT 10SM OVC120 00/M04 A3009 RMK AO2 SLP199 T00001039
                 10050 21017 58010 =
2017-11-17 17:53 METAR KELM 172253Z 00000KT 10SM CLR M01/M06 A3012 RMK AO2 SLP210 T10111056 =
2017-11-17 16:53 METAR KELM 172153Z 10004KT 10SM CLR 01/M05 A3012 RMK AO2 SLP208 T00061050 =

Support USWX by starting your Amazon purchase here.